Time;durP1;ratioP1;P1;durP2;ratioP2;P2;SDS_P1;SDS_P2;PMS_P1;PMS_P2;Temp;Humidity;BMP_temperature;BMP_pressure;BME280_temperature;BME280_humidity;BME280_pressure;Samples;Min_cycle;Max_cycle;Signal;HPM_P1;HPM_P2
2021/10/17 00:01:40;;;;;;;;;;;18.70;82.30;;;;;;5096215;28;19915;-71
2021/10/17 00:04:06;;;;;;;;;;;18.80;82.90;;;;;;5096194;28;19965;-72
2021/10/17 00:06:33;;;;;;;;;;;18.90;82.60;;;;;;5095805;28;19999;-72
2021/10/17 00:09:00;;;;;;;;;;;19.00;80.30;;;;;;5102223;28;19908;-72
2021/10/17 00:11:27;;;;;;;;;;;18.90;79.90;;;;;;5114951;28;19908;-71
2021/10/17 00:13:53;;;;;;;;;;;19.00;80.30;;;;;;5115578;28;19907;-70
2021/10/17 00:16:20;;;;;;;;;;;19.00;80.30;;;;;;5116372;28;20255;-70
2021/10/17 00:18:47;;;;;;;;;;;19.10;81.80;;;;;;5115145;28;20358;-70
2021/10/17 00:21:14;;;;;;;;;;;19.30;81.30;;;;;;5116591;28;19912;-70
2021/10/17 00:23:40;;;;;;;;;;;19.50;79.60;;;;;;5116095;28;19912;-70
2021/10/17 00:26:07;;;;;;;;;;;19.60;79.10;;;;;;5115416;28;19996;-71
2021/10/17 00:28:34;;;;;;;;;;;19.50;79.00;;;;;;5116263;28;20362;-70
2021/10/17 00:31:00;;;;;;;;;;;19.50;78.40;;;;;;5116120;28;19929;-70
2021/10/17 00:33:27;;;;;;;;;;;19.40;79.10;;;;;;5116227;28;19960;-71
2021/10/17 00:35:54;;;;;;;;;;;19.40;79.80;;;;;;5115899;28;19908;-72
2021/10/17 00:38:20;;;;;;;;;;;19.60;79.30;;;;;;5115911;28;19923;-71
2021/10/17 00:40:47;;;;;;;;;;;19.60;77.10;;;;;;5115374;28;20286;-73
2021/10/17 00:43:14;;;;;;;;;;;19.80;76.50;;;;;;5115678;28;19923;-72
2021/10/17 00:45:40;;;;;;;;;;;20.10;76.10;;;;;;5115372;28;19983;-73
2021/10/17 00:48:07;;;;;;;;;;;20.30;74.10;;;;;;5115928;28;19908;-73
2021/10/17 00:50:34;;;;;;;;;;;20.90;71.80;;;;;;5115753;28;20354;-73
2021/10/17 00:53:01;;;;;;;;;;;21.10;72.30;;;;;;5115622;28;20041;-71
2021/10/17 00:55:29;;;;;;;;;;;21.30;72.30;;;;;;5114894;28;20359;-72
2021/10/17 00:57:59;;;;;;;;;;;21.40;72.80;;;;;;5115694;28;19945;-73
2021/10/17 01:00:26;;;;;;;;;;;21.80;72.20;;;;;;5115820;28;19908;-72
2021/10/17 01:02:53;;;;;;;;;;;21.50;71.80;;;;;;5115979;28;19915;-72
2021/10/17 01:05:19;;;;;;;;;;;21.50;72.90;;;;;;5115606;28;20350;-71
2021/10/17 01:07:47;;;;;;;;;;;21.60;70.30;;;;;;5115185;28;19962;-73
2021/10/17 01:10:14;;;;;;;;;;;22.20;70.40;;;;;;5113526;27;19915;-73
2021/10/17 01:12:41;;;;;;;;;;;22.10;70.50;;;;;;5115401;28;19908;-73
2021/10/17 01:15:08;;;;;;;;;;;22.20;68.80;;;;;;5115508;28;19933;-72
2021/10/17 01:17:35;;;;;;;;;;;22.10;68.70;;;;;;5115296;27;19908;-72
2021/10/17 01:20:01;;;;;;;;;;;22.40;68.90;;;;;;5115231;28;20354;-72
2021/10/17 01:22:28;;;;;;;;;;;23.00;67.70;;;;;;5115245;28;20304;-73
2021/10/17 01:24:55;;;;;;;;;;;22.60;74.30;;;;;;5114613;28;19912;-72
2021/10/17 01:27:21;;;;;;;;;;;22.50;76.10;;;;;;5115093;27;20009;-71
2021/10/17 01:29:48;;;;;;;;;;;22.20;76.90;;;;;;5114917;28;19943;-71
2021/10/17 01:32:16;;;;;;;;;;;22.00;77.80;;;;;;5115237;28;19915;-71
2021/10/17 01:34:43;;;;;;;;;;;21.70;77.80;;;;;;5114881;28;20013;-70
2021/10/17 01:37:09;;;;;;;;;;;21.40;79.90;;;;;;5114957;28;19961;-70
2021/10/17 01:39:36;;;;;;;;;;;21.20;79.70;;;;;;5114007;28;20018;-71
2021/10/17 01:42:03;;;;;;;;;;;21.00;80.00;;;;;;5115382;27;20385;-72
2021/10/17 01:44:31;;;;;;;;;;;20.90;80.90;;;;;;5113824;28;19914;-73
2021/10/17 01:46:58;;;;;;;;;;;20.80;81.20;;;;;;5113411;28;19907;-69
2021/10/17 01:49:24;;;;;;;;;;;20.70;81.30;;;;;;5114651;28;19981;-72
2021/10/17 01:51:51;;;;;;;;;;;20.70;81.20;;;;;;5114584;28;20304;-70
2021/10/17 01:54:18;;;;;;;;;;;20.40;82.40;;;;;;5114083;28;20318;-70
2021/10/17 01:56:45;;;;;;;;;;;20.00;82.40;;;;;;5114378;28;19943;-71
2021/10/17 01:59:11;;;;;;;;;;;20.10;83.40;;;;;;5114011;27;20010;-70
2021/10/17 02:01:38;;;;;;;;;;;20.10;84.40;;;;;;5114059;28;19939;-70
2021/10/17 02:04:05;;;;;;;;;;;20.20;85.30;;;;;;5114264;28;20270;-70
2021/10/17 02:06:31;;;;;;;;;;;20.40;84.40;;;;;;5114187;28;19934;-70
2021/10/17 02:09:00;;;;;;;;;;;20.20;84.80;;;;;;5113575;28;19923;-70
2021/10/17 02:11:27;;;;;;;;;;;20.30;84.00;;;;;;5114168;28;19911;-69
2021/10/17 02:13:53;;;;;;;;;;;20.30;85.10;;;;;;5120022;28;20358;-70
2021/10/17 02:16:20;;;;;;;;;;;20.30;84.60;;;;;;5116674;28;19986;-70
2021/10/17 02:18:47;;;;;;;;;;;20.30;84.30;;;;;;5114053;28;20415;-72
2021/10/17 02:21:14;;;;;;;;;;;20.20;84.90;;;;;;5113725;28;19907;-72
2021/10/17 02:23:40;;;;;;;;;;;20.20;84.90;;;;;;5112017;28;20360;-72
2021/10/17 02:26:07;;;;;;;;;;;20.10;85.80;;;;;;5082735;28;19909;-70
2021/10/17 02:28:34;;;;;;;;;;;20.20;84.80;;;;;;5105807;28;19954;-70
2021/10/17 02:31:01;;;;;;;;;;;20.10;84.90;;;;;;5073426;28;19920;-75
2021/10/17 02:33:28;;;;;;;;;;;20.10;86.60;;;;;;5073674;28;20008;-71
2021/10/17 02:35:54;;;;;;;;;;;20.10;86.60;;;;;;5072996;28;19908;-74
2021/10/17 02:38:21;;;;;;;;;;;20.20;87.00;;;;;;5073168;28;19963;-74
2021/10/17 02:40:48;;;;;;;;;;;20.20;87.20;;;;;;5073204;28;20387;-71
2021/10/17 02:43:15;;;;;;;;;;;20.20;87.10;;;;;;5073298;28;19912;-71
2021/10/17 02:45:41;;;;;;;;;;;20.10;88.30;;;;;;5074435;28;19912;-70
2021/10/17 02:48:08;;;;;;;;;;;20.20;86.90;;;;;;5093070;28;19926;-74
2021/10/17 02:50:35;;;;;;;;;;;20.00;86.00;;;;;;5092688;28;19908;-71
2021/10/17 02:53:01;;;;;;;;;;;20.00;88.30;;;;;;5092818;28;19944;-70
2021/10/17 02:55:28;;;;;;;;;;;20.00;88.10;;;;;;5092861;28;19965;-70
2021/10/17 02:57:55;;;;;;;;;;;19.90;89.40;;;;;;5093392;28;19965;-74
2021/10/17 03:00:21;;;;;;;;;;;19.90;89.00;;;;;;5092259;28;19919;-71
2021/10/17 03:02:52;;;;;;;;;;;20.00;88.50;;;;;;5108269;27;20472;-71
2021/10/17 03:05:18;;;;;;;;;;;19.90;89.30;;;;;;5113319;28;19912;-71
2021/10/17 03:07:45;;;;;;;;;;;19.90;89.80;;;;;;5113083;28;19911;-70
2021/10/17 03:10:12;;;;;;;;;;;19.80;88.80;;;;;;5113251;28;19965;-71
2021/10/17 03:12:41;;;;;;;;;;;19.80;88.10;;;;;;5113194;28;19915;-71
2021/10/17 03:15:08;;;;;;;;;;;19.80;90.00;;;;;;5112962;28;19959;-70
2021/10/17 03:17:35;;;;;;;;;;;20.00;90.30;;;;;;5112882;28;19908;-71
2021/10/17 03:20:03;;;;;;;;;;;20.10;88.50;;;;;;5113293;28;19916;-71
2021/10/17 03:22:29;;;;;;;;;;;20.10;89.10;;;;;;5113180;28;19909;-70
2021/10/17 03:24:56;;;;;;;;;;;20.00;87.30;;;;;;5113148;28;19990;-70
2021/10/17 03:27:23;;;;;;;;;;;19.80;88.40;;;;;;5111776;28;19915;-70
2021/10/17 03:29:49;;;;;;;;;;;19.90;87.90;;;;;;5112816;28;19949;-69
2021/10/17 03:32:16;;;;;;;;;;;19.80;87.40;;;;;;5112675;28;19907;-71
2021/10/17 03:34:43;;;;;;;;;;;19.80;87.30;;;;;;5112252;28;19908;-72
2021/10/17 03:37:09;;;;;;;;;;;19.80;84.70;;;;;;5112866;28;20006;-71
2021/10/17 03:39:36;;;;;;;;;;;19.60;86.90;;;;;;5112610;28;20358;-72
2021/10/17 03:42:02;;;;;;;;;;;19.60;88.20;;;;;;5112901;28;19908;-71
2021/10/17 03:44:29;;;;;;;;;;;19.40;86.70;;;;;;5113852;28;20366;-72
2021/10/17 03:46:56;;;;;;;;;;;19.50;88.30;;;;;;5113138;28;19908;-71
2021/10/17 03:49:23;;;;;;;;;;;19.50;87.60;;;;;;5113801;28;19960;-72
2021/10/17 03:51:50;;;;;;;;;;;19.60;90.10;;;;;;5118220;28;20387;-72
2021/10/17 03:54:17;;;;;;;;;;;19.80;90.30;;;;;;5117439;28;19908;-71
2021/10/17 03:56:44;;;;;;;;;;;19.80;90.10;;;;;;5111838;28;19923;-71
2021/10/17 03:59:10;;;;;;;;;;;19.80;90.10;;;;;;5112171;28;20454;-71
2021/10/17 04:01:37;;;;;;;;;;;19.80;89.80;;;;;;5112777;28;19954;-71
2021/10/17 04:04:04;;;;;;;;;;;19.70;88.90;;;;;;5112906;28;19914;-70
2021/10/17 04:06:30;;;;;;;;;;;19.50;89.50;;;;;;5113216;28;19934;-71
2021/10/17 04:08:57;;;;;;;;;;;19.50;88.70;;;;;;5112115;28;20049;-73
2021/10/17 04:11:24;;;;;;;;;;;19.40;89.20;;;;;;5112928;28;19931;-72
2021/10/17 04:13:50;;;;;;;;;;;19.40;89.90;;;;;;5112753;28;19911;-72
2021/10/17 04:16:17;;;;;;;;;;;19.40;90.00;;;;;;5112894;28;20334;-73
2021/10/17 04:18:43;;;;;;;;;;;19.50;90.10;;;;;;5112765;28;19916;-72
2021/10/17 04:21:10;;;;;;;;;;;19.50;90.10;;;;;;5112522;28;20308;-71
2021/10/17 04:23:37;;;;;;;;;;;19.50;90.60;;;;;;5111170;28;19951;-73
2021/10/17 04:26:04;;;;;;;;;;;19.50;90.70;;;;;;5112979;28;20380;-72
2021/10/17 04:28:31;;;;;;;;;;;19.50;90.80;;;;;;5112983;28;19933;-73
2021/10/17 04:30:58;;;;;;;;;;;19.50;90.90;;;;;;5112852;28;20278;-70
2021/10/17 04:33:24;;;;;;;;;;;19.50;91.30;;;;;;5112589;28;20341;-70
2021/10/17 04:35:52;;;;;;;;;;;19.50;90.90;;;;;;5112234;28;20104;-72
2021/10/17 04:38:19;;;;;;;;;;;19.30;91.30;;;;;;5109296;28;19960;-72
2021/10/17 04:40:46;;;;;;;;;;;19.40;92.30;;;;;;5091769;28;19964;-73
2021/10/17 04:43:12;;;;;;;;;;;19.50;91.90;;;;;;5073494;28;20429;-72
2021/10/17 04:45:41;;;;;;;;;;;19.50;91.60;;;;;;5094494;28;19908;-71
2021/10/17 04:48:08;;;;;;;;;;;19.50;90.90;;;;;;5095436;28;20010;-71
2021/10/17 04:50:36;;;;;;;;;;;19.50;90.40;;;;;;5095246;28;19908;-72
2021/10/17 04:53:03;;;;;;;;;;;19.40;90.40;;;;;;5095456;28;19995;-73
2021/10/17 04:55:29;;;;;;;;;;;19.30;91.10;;;;;;5094747;28;19916;-72
2021/10/17 04:57:57;;;;;;;;;;;19.30;91.20;;;;;;5095470;28;20408;-74
2021/10/17 05:00:25;;;;;;;;;;;19.20;91.50;;;;;;5095508;28;19913;-73
2021/10/17 05:02:53;;;;;;;;;;;19.30;91.20;;;;;;5087270;28;19913;-73
2021/10/17 05:05:19;;;;;;;;;;;19.20;91.50;;;;;;5075024;28;19908;-73
2021/10/17 05:07:47;;;;;;;;;;;19.20;91.30;;;;;;5074833;28;19915;-73
2021/10/17 05:10:14;;;;;;;;;;;19.20;91.70;;;;;;5075361;28;19912;-71
2021/10/17 05:12:41;;;;;;;;;;;19.30;91.20;;;;;;5073729;28;20298;-73
2021/10/17 05:15:08;;;;;;;;;;;19.20;91.50;;;;;;5075201;28;19908;-71
2021/10/17 05:17:34;;;;;;;;;;;19.20;91.70;;;;;;5074301;28;20448;-73
2021/10/17 05:20:01;;;;;;;;;;;19.20;92.40;;;;;;5076068;28;19920;-74
2021/10/17 05:22:28;;;;;;;;;;;19.20;91.60;;;;;;5075210;28;19962;-73
2021/10/17 05:24:54;;;;;;;;;;;19.20;92.80;;;;;;5075197;28;20003;-74
2021/10/17 05:27:22;;;;;;;;;;;19.30;92.50;;;;;;5079625;28;20379;-73
2021/10/17 05:29:49;;;;;;;;;;;19.30;92.90;;;;;;5082573;28;19958;-73
2021/10/17 05:32:15;;;;;;;;;;;19.40;92.10;;;;;;5074423;28;19914;-74
2021/10/17 05:34:42;;;;;;;;;;;19.30;92.10;;;;;;5074750;28;20009;-73
2021/10/17 05:37:09;;;;;;;;;;;19.20;92.40;;;;;;5074923;28;19912;-72
2021/10/17 05:39:35;;;;;;;;;;;19.10;92.30;;;;;;5075095;28;19985;-73
2021/10/17 05:42:04;;;;;;;;;;;19.20;92.20;;;;;;5075170;28;19939;-74
2021/10/17 05:44:31;;;;;;;;;;;19.20;92.40;;;;;;5074778;28;19962;-72
2021/10/17 05:47:02;;;;;;;;;;;19.30;92.10;;;;;;5073420;28;20015;-70
2021/10/17 05:49:29;;;;;;;;;;;19.30;93.00;;;;;;5074661;28;19908;-71
2021/10/17 05:51:56;;;;;;;;;;;19.40;92.20;;;;;;5074400;28;19908;-70
2021/10/17 05:54:22;;;;;;;;;;;19.30;93.20;;;;;;5075105;28;19908;-74
2021/10/17 05:56:49;;;;;;;;;;;19.30;93.20;;;;;;5073674;28;19921;-72
2021/10/17 05:59:17;;;;;;;;;;;19.20;94.20;;;;;;5074926;28;20434;-72
2021/10/17 06:01:44;;;;;;;;;;;19.20;94.70;;;;;;5074227;28;20419;-71
2021/10/17 06:04:11;;;;;;;;;;;19.20;94.50;;;;;;5073003;28;19975;-70
2021/10/17 06:06:43;;;;;;;;;;;19.20;94.70;;;;;;5073467;28;19908;-70
2021/10/17 06:09:10;;;;;;;;;;;19.10;95.10;;;;;;5074159;28;19966;-70
2021/10/17 06:11:37;;;;;;;;;;;19.20;94.60;;;;;;5073488;28;19916;-71
2021/10/17 06:14:06;;;;;;;;;;;19.10;95.00;;;;;;5073391;28;19908;-72
2021/10/17 06:16:33;;;;;;;;;;;19.20;95.80;;;;;;5072883;28;19915;-73
2021/10/17 06:18:59;;;;;;;;;;;19.10;95.60;;;;;;5073783;28;20014;-71
2021/10/17 06:21:26;;;;;;;;;;;19.00;95.70;;;;;;5073746;28;19908;-69
2021/10/17 06:23:53;;;;;;;;;;;18.90;96.10;;;;;;5073844;28;19909;-69
2021/10/17 06:26:19;;;;;;;;;;;18.80;96.40;;;;;;5074191;28;19909;-69
2021/10/17 06:28:46;;;;;;;;;;;18.80;96.50;;;;;;5073594;28;20598;-69
2021/10/17 06:31:16;;;;;;;;;;;18.80;97.00;;;;;;5073940;28;19908;-70
2021/10/17 06:33:42;;;;;;;;;;;18.80;97.00;;;;;;5074879;28;19908;-73
2021/10/17 06:36:10;;;;;;;;;;;18.80;98.20;;;;;;5074717;28;20086;-72
2021/10/17 06:38:37;;;;;;;;;;;18.70;97.90;;;;;;5074369;28;19912;-72
2021/10/17 06:41:03;;;;;;;;;;;18.70;98.50;;;;;;5074771;28;19990;-73
2021/10/17 06:43:30;;;;;;;;;;;18.70;98.00;;;;;;5075209;28;19908;-72
2021/10/17 06:45:57;;;;;;;;;;;18.60;98.00;;;;;;5075172;28;19908;-70
2021/10/17 06:48:24;;;;;;;;;;;18.70;99.10;;;;;;5075446;28;19951;-72
2021/10/17 06:50:50;;;;;;;;;;;18.60;98.80;;;;;;5073654;28;20260;-74
2021/10/17 06:53:17;;;;;;;;;;;18.50;99.50;;;;;;5074845;28;19909;-72
2021/10/17 06:55:44;;;;;;;;;;;18.50;99.30;;;;;;5073868;28;20382;-73
2021/10/17 06:58:10;;;;;;;;;;;18.40;99.50;;;;;;5074268;28;20356;-72
2021/10/17 07:00:37;;;;;;;;;;;18.40;98.80;;;;;;5074032;28;19962;-69
2021/10/17 07:03:04;;;;;;;;;;;18.40;99.50;;;;;;5083399;28;19948;-71
2021/10/17 07:05:31;;;;;;;;;;;18.40;99.30;;;;;;5079504;28;19944;-70
2021/10/17 07:07:59;;;;;;;;;;;18.40;99.90;;;;;;5079349;28;20007;-71
2021/10/17 07:10:26;;;;;;;;;;;18.30;99.90;;;;;;5093602;28;19912;-70
2021/10/17 07:12:56;;;;;;;;;;;18.30;99.90;;;;;;5092530;28;19969;-71
2021/10/17 07:15:22;;;;;;;;;;;18.30;99.90;;;;;;5094212;28;20681;-72
2021/10/17 07:17:49;;;;;;;;;;;18.20;99.90;;;;;;5093629;28;20362;-70
2021/10/17 07:20:16;;;;;;;;;;;18.20;99.90;;;;;;5091459;28;19923;-70
2021/10/17 07:22:42;;;;;;;;;;;18.10;99.90;;;;;;5092984;28;19912;-71
2021/10/17 07:25:10;;;;;;;;;;;18.10;99.90;;;;;;5093098;28;19985;-70
2021/10/17 07:27:37;;;;;;;;;;;18.10;99.90;;;;;;5092957;28;20363;-70
2021/10/17 07:30:06;;;;;;;;;;;18.10;99.90;;;;;;5093372;28;19961;-70
2021/10/17 07:32:34;;;;;;;;;;;18.10;99.90;;;;;;5093559;28;19908;-71
2021/10/17 07:35:01;;;;;;;;;;;18.10;99.90;;;;;;5093388;28;19914;-71
2021/10/17 07:37:28;;;;;;;;;;;18.00;99.90;;;;;;5092503;28;19912;-70
2021/10/17 07:39:54;;;;;;;;;;;18.00;99.90;;;;;;5093288;28;19916;-70
2021/10/17 07:42:21;;;;;;;;;;;18.00;99.90;;;;;;5094005;28;19916;-71
2021/10/17 07:44:47;;;;;;;;;;;17.90;99.90;;;;;;5094288;28;19931;-70
2021/10/17 07:47:14;;;;;;;;;;;17.90;99.90;;;;;;5094653;28;19927;-71
2021/10/17 07:49:44;;;;;;;;;;;17.80;99.90;;;;;;5093287;28;19908;-72
2021/10/17 07:52:10;;;;;;;;;;;17.80;99.90;;;;;;5093048;28;19993;-70
2021/10/17 07:54:39;;;;;;;;;;;17.80;99.90;;;;;;5092684;28;20001;-70
2021/10/17 07:57:06;;;;;;;;;;;17.80;99.90;;;;;;5093431;28;19924;-72
2021/10/17 07:59:33;;;;;;;;;;;17.80;99.90;;;;;;5092934;28;19961;-70
2021/10/17 08:02:01;;;;;;;;;;;17.80;99.90;;;;;;5092687;28;19947;-73
2021/10/17 08:04:28;;;;;;;;;;;17.70;99.90;;;;;;5086442;28;19962;-71
2021/10/17 08:06:54;;;;;;;;;;;17.70;99.90;;;;;;5091418;28;20342;-72
2021/10/17 08:09:21;;;;;;;;;;;17.70;99.90;;;;;;5092147;28;19915;-72
2021/10/17 08:11:47;;;;;;;;;;;17.70;99.90;;;;;;5092081;28;20219;-71
2021/10/17 08:14:14;;;;;;;;;;;17.70;99.90;;;;;;5091980;28;19912;-74
2021/10/17 08:16:41;;;;;;;;;;;17.60;99.90;;;;;;5092130;28;19915;-70
2021/10/17 08:19:07;;;;;;;;;;;17.60;99.90;;;;;;5091800;28;19969;-70
2021/10/17 08:21:35;;;;;;;;;;;17.60;99.90;;;;;;5095799;28;19912;-69
2021/10/17 08:24:01;;;;;;;;;;;17.60;99.90;;;;;;5096342;28;19978;-70
2021/10/17 08:26:28;;;;;;;;;;;17.50;99.90;;;;;;5096564;28;19977;-73
2021/10/17 08:28:55;;;;;;;;;;;17.50;99.90;;;;;;5096151;28;20273;-70
2021/10/17 08:31:22;;;;;;;;;;;17.50;99.90;;;;;;5074037;28;19942;-70
2021/10/17 08:33:49;;;;;;;;;;;17.40;99.90;;;;;;5074969;28;19909;-71
2021/10/17 08:36:15;;;;;;;;;;;17.40;99.90;;;;;;5074550;28;19908;-71
2021/10/17 08:38:42;;;;;;;;;;;17.40;99.90;;;;;;5083487;28;19920;-70
2021/10/17 08:41:12;;;;;;;;;;;17.40;99.90;;;;;;5095961;28;20367;-70
2021/10/17 08:43:39;;;;;;;;;;;17.40;99.90;;;;;;5094935;28;19908;-70
2021/10/17 08:46:06;;;;;;;;;;;17.40;99.90;;;;;;5095322;28;19915;-71
2021/10/17 08:48:33;;;;;;;;;;;17.40;99.90;;;;;;5095043;28;19908;-71
2021/10/17 08:51:01;;;;;;;;;;;17.30;99.90;;;;;;5095386;28;19908;-72
2021/10/17 08:53:27;;;;;;;;;;;17.30;99.90;;;;;;5095095;28;20327;-71
2021/10/17 08:55:54;;;;;;;;;;;17.40;99.90;;;;;;5094983;28;20458;-71
2021/10/17 08:58:21;;;;;;;;;;;17.40;99.90;;;;;;5095212;28;19920;-71
2021/10/17 09:00:48;;;;;;;;;;;17.30;99.90;;;;;;5096476;28;19962;-70
2021/10/17 09:03:29;;;;;;;;;;;17.30;99.90;;;;;;5096036;28;19919;-70
2021/10/17 09:05:56;;;;;;;;;;;17.30;99.90;;;;;;5094521;28;19908;-70
2021/10/17 09:08:28;;;;;;;;;;;17.20;99.90;;;;;;5094880;28;19915;-70
2021/10/17 09:10:55;;;;;;;;;;;17.20;99.90;;;;;;5094932;28;19908;-71
2021/10/17 09:13:22;;;;;;;;;;;17.30;99.90;;;;;;5095068;28;19920;-72
2021/10/17 09:15:48;;;;;;;;;;;17.30;99.90;;;;;;5093622;28;19958;-70
2021/10/17 09:18:18;;;;;;;;;;;17.30;99.90;;;;;;5093792;28;19908;-71
2021/10/17 09:20:48;;;;;;;;;;;17.20;99.90;;;;;;5094675;28;19912;-71
2021/10/17 09:23:16;;;;;;;;;;;17.30;99.90;;;;;;5095110;28;19970;-71
2021/10/17 09:25:43;;;;;;;;;;;17.20;99.90;;;;;;5094169;28;20011;-72
2021/10/17 09:28:16;;;;;;;;;;;17.20;99.90;;;;;;5094591;28;19995;-71
2021/10/17 09:30:43;;;;;;;;;;;17.20;99.90;;;;;;5094022;28;19908;-71
2021/10/17 09:33:18;;;;;;;;;;;17.20;99.90;;;;;;5094370;28;20298;-71
2021/10/17 09:35:44;;;;;;;;;;;17.20;99.90;;;;;;5093246;28;19908;-72
2021/10/17 09:38:11;;;;;;;;;;;17.20;99.90;;;;;;5094135;28;19908;-70
2021/10/17 09:40:40;;;;;;;;;;;17.20;99.90;;;;;;5094248;28;19912;-71
2021/10/17 09:43:22;;;;;;;;;;;17.20;99.90;;;;;;5094587;28;19947;-70
2021/10/17 09:45:49;;;;;;;;;;;17.20;99.90;;;;;;5094087;28;19952;-70
2021/10/17 09:48:30;;;;;;;;;;;17.20;99.90;;;;;;5094220;28;19908;-71
2021/10/17 09:51:03;;;;;;;;;;;17.20;99.90;;;;;;5094049;28;19916;-72
2021/10/17 09:53:42;;;;;;;;;;;17.10;99.90;;;;;;5094331;28;20359;-71
2021/10/17 09:56:09;;;;;;;;;;;17.10;99.90;;;;;;5093766;28;20407;-71
2021/10/17 09:58:36;;;;;;;;;;;17.10;99.90;;;;;;5093893;28;19926;-71
2021/10/17 10:01:03;;;;;;;;;;;17.10;99.90;;;;;;5093960;28;19920;-71
2021/10/17 10:03:30;;;;;;;;;;;17.10;99.90;;;;;;5093855;28;20286;-70
2021/10/17 10:05:58;;;;;;;;;;;17.10;99.90;;;;;;5093236;28;20423;-71
2021/10/17 10:08:26;;;;;;;;;;;17.10;99.90;;;;;;5093884;28;19908;-71
2021/10/17 10:10:52;;;;;;;;;;;17.10;99.90;;;;;;5093960;28;19916;-71
2021/10/17 10:13:20;;;;;;;;;;;17.10;99.90;;;;;;5093920;28;20046;-70
2021/10/17 10:15:47;;;;;;;;;;;17.10;99.90;;;;;;5096149;28;20294;-71
2021/10/17 10:18:14;;;;;;;;;;;17.10;99.90;;;;;;5098076;28;19912;-71
2021/10/17 10:20:41;;;;;;;;;;;17.10;99.90;;;;;;5106860;28;19908;-71
2021/10/17 10:23:11;;;;;;;;;;;17.00;99.90;;;;;;5114105;28;19907;-70
2021/10/17 10:25:41;;;;;;;;;;;17.00;99.90;;;;;;5113585;28;20305;-71
2021/10/17 10:28:12;;;;;;;;;;;17.00;99.90;;;;;;5113489;28;19952;-71
2021/10/17 10:30:39;;;;;;;;;;;17.00;99.90;;;;;;5113950;28;19912;-71
2021/10/17 10:33:06;;;;;;;;;;;17.00;99.90;;;;;;5113666;28;19907;-71
2021/10/17 10:35:33;;;;;;;;;;;17.00;99.90;;;;;;5113055;28;20362;-71
2021/10/17 10:38:00;;;;;;;;;;;17.00;99.90;;;;;;5113930;28;19916;-71
2021/10/17 10:40:27;;;;;;;;;;;17.00;99.90;;;;;;5113789;28;20014;-71
2021/10/17 10:42:53;;;;;;;;;;;17.00;99.90;;;;;;5113522;28;20286;-72
2021/10/17 10:45:37;;;;;;;;;;;16.90;99.90;;;;;;5112288;28;19907;-72
2021/10/17 10:48:12;;;;;;;;;;;17.00;99.90;;;;;;5113410;28;19930;-71
2021/10/17 10:50:49;;;;;;;;;;;17.00;99.90;;;;;;5111539;28;19942;-72
2021/10/17 10:53:34;;;;;;;;;;;16.90;99.90;;;;;;5113529;28;19908;-72
2021/10/17 10:56:00;;;;;;;;;;;16.90;99.90;;;;;;5113586;28;19958;-71
2021/10/17 10:58:36;;;;;;;;;;;16.90;99.90;;;;;;5113559;28;19919;-72
2021/10/17 11:01:03;;;;;;;;;;;16.90;99.90;;;;;;5112979;28;20331;-73
2021/10/17 11:03:43;;;;;;;;;;;16.90;99.90;;;;;;5112503;28;20217;-71
2021/10/17 11:06:09;;;;;;;;;;;16.90;99.90;;;;;;5113098;28;19914;-72
2021/10/17 11:08:38;;;;;;;;;;;16.90;99.90;;;;;;5113572;28;19934;-72
2021/10/17 11:11:05;;;;;;;;;;;16.90;99.90;;;;;;5113459;28;20223;-72
2021/10/17 11:13:34;;;;;;;;;;;16.80;99.90;;;;;;5113178;28;19916;-72
2021/10/17 11:16:01;;;;;;;;;;;16.80;99.90;;;;;;5113105;28;20017;-71
2021/10/17 11:18:29;;;;;;;;;;;16.80;99.90;;;;;;5112353;28;20007;-72
2021/10/17 11:20:56;;;;;;;;;;;16.80;99.90;;;;;;5112575;28;20002;-72
2021/10/17 11:23:24;;;;;;;;;;;16.80;99.90;;;;;;5113299;28;19908;-72
2021/10/17 11:26:01;;;;;;;;;;;16.80;99.90;;;;;;5111761;28;20002;-75
2021/10/17 11:28:29;;;;;;;;;;;16.80;99.90;;;;;;5113061;28;19915;-71
2021/10/17 11:31:01;;;;;;;;;;;16.80;99.90;;;;;;5113013;28;19915;-71
2021/10/17 11:33:28;;;;;;;;;;;16.80;99.90;;;;;;5113013;28;19915;-69
2021/10/17 11:35:57;;;;;;;;;;;16.90;99.90;;;;;;5112371;28;19908;-71
2021/10/17 11:38:24;;;;;;;;;;;16.80;99.90;;;;;;5112972;28;20270;-71
2021/10/17 11:40:58;;;;;;;;;;;16.80;99.90;;;;;;5112949;28;19919;-71
2021/10/17 11:43:35;;;;;;;;;;;16.80;99.90;;;;;;5113114;28;19919;-71
2021/10/17 11:46:04;;;;;;;;;;;16.80;99.90;;;;;;5112809;28;19918;-72
2021/10/17 11:48:33;;;;;;;;;;;16.80;99.90;;;;;;5112424;28;19908;-72
2021/10/17 11:51:03;;;;;;;;;;;16.80;99.90;;;;;;5113017;28;19915;-73
2021/10/17 11:53:31;;;;;;;;;;;16.70;99.90;;;;;;5118904;28;20259;-72
2021/10/17 11:55:57;;;;;;;;;;;16.80;99.90;;;;;;5124788;28;19973;-73
2021/10/17 11:58:28;;;;;;;;;;;16.70;99.90;;;;;;5116907;28;19911;-73
2021/10/17 12:00:56;;;;;;;;;;;16.70;99.90;;;;;;5117037;28;19908;-74
2021/10/17 12:03:24;;;;;;;;;;;16.70;99.90;;;;;;5116745;28;19908;-74
2021/10/17 12:05:51;;;;;;;;;;;16.70;99.90;;;;;;5116947;28;19912;-74
2021/10/17 12:08:20;;;;;;;;;;;16.70;99.90;;;;;;5117005;28;19930;-73
2021/10/17 12:11:01;;;;;;;;;;;16.70;99.90;;;;;;5116850;28;19907;-73
2021/10/17 12:13:29;;;;;;;;;;;16.70;99.90;;;;;;5116650;28;20282;-72
2021/10/17 12:16:07;;;;;;;;;;;16.60;99.90;;;;;;5116641;28;19908;-72
2021/10/17 12:18:34;;;;;;;;;;;16.50;99.90;;;;;;5116549;28;20243;-72
2021/10/17 12:21:01;;;;;;;;;;;16.50;99.90;;;;;;5116552;28;19908;-73
2021/10/17 12:23:29;;;;;;;;;;;16.50;99.90;;;;;;5116623;28;19907;-73
2021/10/17 12:25:55;;;;;;;;;;;16.40;99.90;;;;;;5116611;28;19907;-73
2021/10/17 12:28:22;;;;;;;;;;;16.40;99.90;;;;;;5116706;28;19911;-73
2021/10/17 12:30:50;;;;;;;;;;;16.30;99.90;;;;;;5116423;28;19908;-73
2021/10/17 12:33:24;;;;;;;;;;;16.30;99.90;;;;;;5116182;28;20265;-73
2021/10/17 12:35:51;;;;;;;;;;;16.20;99.90;;;;;;5116193;27;20350;-73
2021/10/17 12:38:18;;;;;;;;;;;16.20;99.90;;;;;;5116259;28;20328;-73
2021/10/17 12:40:53;;;;;;;;;;;16.30;99.90;;;;;;5114985;28;19925;-74
2021/10/17 12:43:23;;;;;;;;;;;16.30;99.90;;;;;;5115990;28;19961;-73
2021/10/17 12:45:50;;;;;;;;;;;16.30;99.90;;;;;;5115925;28;19919;-73
2021/10/17 12:48:21;;;;;;;;;;;16.40;99.90;;;;;;5116207;28;19974;-73
2021/10/17 12:50:48;;;;;;;;;;;16.40;99.90;;;;;;5114806;28;19907;-73
2021/10/17 12:53:15;;;;;;;;;;;16.30;99.90;;;;;;5111147;28;19915;-71
2021/10/17 12:55:43;;;;;;;;;;;16.40;99.90;;;;;;5092200;28;19931;-72
2021/10/17 12:58:18;;;;;;;;;;;16.40;99.90;;;;;;5095378;28;19909;-71
2021/10/17 13:01:00;;;;;;;;;;;16.40;99.90;;;;;;5095360;28;19913;-72
2021/10/17 13:03:26;;;;;;;;;;;16.40;99.90;;;;;;5094861;28;19908;-72
2021/10/17 13:05:57;;;;;;;;;;;16.40;99.90;;;;;;5093316;28;20017;-72
2021/10/17 13:08:25;;;;;;;;;;;16.40;99.90;;;;;;5095295;28;20049;-72
2021/10/17 13:10:52;;;;;;;;;;;16.30;99.90;;;;;;5095076;28;19919;-73
2021/10/17 13:13:25;;;;;;;;;;;16.30;99.90;;;;;;5095194;28;19991;-73
2021/10/17 13:15:55;;;;;;;;;;;16.40;99.90;;;;;;5095142;28;19908;-72
2021/10/17 13:18:22;;;;;;;;;;;16.30;99.90;;;;;;5095058;28;19964;-73
2021/10/17 13:20:49;;;;;;;;;;;16.30;99.90;;;;;;5095067;28;19918;-73
2021/10/17 13:23:17;;;;;;;;;;;16.20;99.90;;;;;;5095037;28;19920;-73
2021/10/17 13:25:48;;;;;;;;;;;16.20;99.90;;;;;;5094896;28;19940;-72
2021/10/17 13:28:16;;;;;;;;;;;16.20;99.90;;;;;;5095068;28;19915;-72
2021/10/17 13:30:44;;;;;;;;;;;16.20;99.90;;;;;;5095801;28;20266;-73
2021/10/17 13:33:11;;;;;;;;;;;16.20;99.90;;;;;;5103740;28;19924;-72
2021/10/17 13:35:38;;;;;;;;;;;16.20;99.90;;;;;;5094609;28;19908;-72
2021/10/17 13:38:06;;;;;;;;;;;16.20;99.90;;;;;;5094996;28;19950;-73
2021/10/17 13:40:34;;;;;;;;;;;16.20;99.90;;;;;;5094935;28;19955;-72
2021/10/17 13:43:03;;;;;;;;;;;16.20;99.90;;;;;;5094782;28;19908;-72
2021/10/17 13:45:30;;;;;;;;;;;16.20;99.90;;;;;;5094673;28;19908;-72
2021/10/17 13:47:58;;;;;;;;;;;16.30;99.90;;;;;;5094373;28;19908;-72
2021/10/17 13:50:25;;;;;;;;;;;16.30;99.90;;;;;;5094419;28;19912;-73
2021/10/17 13:52:52;;;;;;;;;;;16.30;99.90;;;;;;5094676;28;19912;-73
2021/10/17 13:55:19;;;;;;;;;;;16.30;99.90;;;;;;5094298;28;20377;-73
2021/10/17 13:57:45;;;;;;;;;;;16.30;99.90;;;;;;5094292;28;19931;-73
2021/10/17 14:00:14;;;;;;;;;;;16.30;99.90;;;;;;5094127;28;20121;-72
2021/10/17 14:02:41;;;;;;;;;;;16.30;99.90;;;;;;5094045;28;19908;-73
2021/10/17 14:05:08;;;;;;;;;;;16.20;99.90;;;;;;5094250;28;19915;-73
2021/10/17 14:07:34;;;;;;;;;;;16.20;99.90;;;;;;5094012;28;19934;-73
2021/10/17 14:10:01;;;;;;;;;;;16.20;99.90;;;;;;5094195;28;19946;-73
2021/10/17 14:12:30;;;;;;;;;;;16.10;99.90;;;;;;5093972;28;19912;-74
2021/10/17 14:14:57;;;;;;;;;;;16.10;99.90;;;;;;5094020;28;19934;-73
2021/10/17 14:17:24;;;;;;;;;;;16.00;99.90;;;;;;5093314;28;19931;-72
2021/10/17 14:19:50;;;;;;;;;;;16.10;99.90;;;;;;5093968;28;19920;-72